Time,TemperatureF,DewpointF,PressureIn,WindDirection,WindDirectionDegrees,WindSpeedMPH,WindSpeedGustMPH,Humidity,HourlyPrecipIn,Conditions,Clouds,dailyrainin,SoftwareType,DateUTC
2013-01-15 00:00:00,63.4,62.0,30.14,ESE,119,0.0,0.0,95,0.00,,---,0.00,VWS V14.01,2013-01-15 05:00:00,
2013-01-15 00:01:00,63.4,62.0,30.14,ESE,119,0.0,0.0,95,0.00,,---,0.00,VWS V14.01,2013-01-15 05:01:00,
2013-01-15 00:03:00,63.3,61.8,30.14,ESE,119,0.0,0.0,95,0.00,,---,0.00,VWS V14.01,2013-01-15 05:03:00,
2013-01-15 00:08:00,63.2,61.8,30.14,ESE,119,0.0,0.0,95,0.00,,---,0.00,VWS V14.01,2013-01-15 05:08:00,
2013-01-15 00:13:00,63.1,61.9,30.13,ESE,119,0.0,0.0,96,0.00,,---,0.00,VWS V14.01,2013-01-15 05:13:00,
2013-01-15 00:18:00,63.1,61.9,30.13,ESE,119,0.0,0.0,96,0.00,,---,0.00,VWS V14.01,2013-01-15 05:18:00,
2013-01-15 00:23:00,63.1,61.9,30.13,ESE,119,0.0,0.0,96,0.00,,---,0.00,VWS V14.01,2013-01-15 05:23:00,
2013-01-15 00:28:00,63.0,61.8,30.13,ESE,119,0.0,0.0,96,0.00,,---,0.00,VWS V14.01,2013-01-15 05:28:00,
2013-01-15 00:30:00,63.4,62.8,30.13,ESE,119,0.0,2.0,98,0.00,,---,0.00,VWS V14.01,2013-01-15 05:30:00,
2013-01-15 00:35:00,63.0,61.8,30.13,ESE,119,0.0,0.0,96,0.00,,---,0.00,VWS V14.01,2013-01-15 05:35:00,
2013-01-15 00:40:00,63.2,62.3,30.13,ESE,119,0.0,0.0,97,0.00,,---,0.00,VWS V14.01,2013-01-15 05:40:00,
2013-01-15 00:45:00,63.4,62.8,30.13,ESE,119,0.0,0.0,98,0.00,,---,0.00,VWS V14.01,2013-01-15 05:45:00,
2013-01-15 00:50:00,63.9,63.3,30.13,ESE,119,1.0,1.0,98,0.00,,---,0.00,VWS V14.01,2013-01-15 05:50:00,
2013-01-15 00:55:00,64.2,63.6,30.13,ESE,119,0.0,1.0,98,0.00,,---,0.00,VWS V14.01,2013-01-15 05:55:00,
2013-01-15 01:00:00,64.1,63.5,30.13,ESE,119,1.0,1.0,98,0.00,,---,0.00,VWS V14.01,2013-01-15 06:00:00,
2013-01-15 01:05:00,64.1,63.5,30.13,ESE,119,0.0,2.0,98,0.00,,---,0.00,VWS V14.01,2013-01-15 06:05:00,
2013-01-15 01:10:00,64.0,63.4,30.13,ESE,119,0.0,2.0,98,0.00,,---,0.00,VWS V14.01,2013-01-15 06:10:00,
2013-01-15 01:15:00,63.8,62.9,30.13,ESE,119,0.0,2.0,97,0.00,,---,0.00,VWS V14.01,2013-01-15 06:15:00,
2013-01-15 01:20:00,63.6,62.7,30.13,ESE,119,0.0,2.0,97,0.00,,---,0.00,VWS V14.01,2013-01-15 06:20:00,
2013-01-15 01:26:00,63.5,62.6,30.13,ESE,119,0.0,2.0,97,0.00,,---,0.00,VWS V14.01,2013-01-15 06:26:00,
2013-01-15 01:30:00,63.4,62.8,30.13,ESE,119,0.0,2.0,98,0.00,,---,0.00,VWS V14.01,2013-01-15 06:30:00,
2013-01-15 01:31:00,63.4,62.8,30.13,ESE,119,0.0,0.0,98,0.00,,---,0.00,VWS V14.01,2013-01-15 06:31:00,
2013-01-15 01:36:00,63.3,62.7,30.13,ESE,119,0.0,0.0,98,0.00,,---,0.00,VWS V14.01,2013-01-15 06:36:00,
2013-01-15 01:41:00,63.1,62.2,30.13,ESE,119,0.0,0.0,97,0.00,,---,0.00,VWS V14.01,2013-01-15 06:41:00,
2013-01-15 01:46:00,63.0,62.1,30.13,ESE,119,0.0,0.0,97,0.00,,---,0.00,VWS V14.01,2013-01-15 06:46:00,
2013-01-15 01:51:00,62.8,61.9,30.13,ESE,119,0.0,0.0,97,0.00,,---,0.00,VWS V14.01,2013-01-15 06:51:00,
2013-01-15 01:56:00,62.6,61.7,30.13,ESE,119,0.0,0.0,97,0.00,,---,0.00,VWS V14.01,2013-01-15 06:56:00,
2013-01-15 02:00:00,62.5,61.6,30.13,ESE,119,0.0,0.0,97,0.00,,---,0.00,VWS V14.01,2013-01-15 07:00:00,
2013-01-15 02:01:00,62.4,61.5,30.13,ESE,119,0.0,0.0,97,0.00,,---,0.00,VWS V14.01,2013-01-15 07:01:00,
2013-01-15 02:06:00,62.3,61.4,30.13,ESE,119,0.0,0.0,97,0.00,,---,0.00,VWS V14.01,2013-01-15 07:06:00,
2013-01-15 02:11:00,62.2,61.3,30.13,ESE,119,0.0,0.0,97,0.00,,---,0.00,VWS V14.01,2013-01-15 07:11:00,
2013-01-15 02:16:00,62.0,61.1,30.13,ESE,119,0.0,0.0,97,0.00,,---,0.00,VWS V14.01,2013-01-15 07:16:00,
2013-01-15 02:21:00,61.9,61.0,30.12,ESE,119,0.0,0.0,97,0.00,,---,0.00,VWS V14.01,2013-01-15 07:21:00,
2013-01-15 02:26:00,61.8,60.9,30.12,ESE,119,0.0,0.0,97,0.00,,---,0.00,VWS V14.01,2013-01-15 07:26:00,
2013-01-15 02:30:00,61.8,61.2,30.12,ESE,119,0.0,0.0,98,0.00,,---,0.00,VWS V14.01,2013-01-15 07:30:00,
2013-01-15 02:31:00,61.8,61.2,30.12,ESE,119,0.0,0.0,98,0.00,,---,0.00,VWS V14.01,2013-01-15 07:31:00,
2013-01-15 02:36:00,61.7,61.1,30.12,ESE,119,0.0,0.0,98,0.00,,---,0.00,VWS V14.01,2013-01-15 07:36:00,
2013-01-15 02:41:00,61.8,61.2,30.12,ESE,119,0.0,0.0,98,0.00,,---,0.00,VWS V14.01,2013-01-15 07:41:00,
2013-01-15 02:46:00,61.8,61.2,30.12,ESE,119,0.0,0.0,98,0.00,,---,0.00,VWS V14.01,2013-01-15 07:46:00,
2013-01-15 02:51:00,61.8,61.2,30.12,ESE,119,0.0,0.0,98,0.00,,---,0.00,VWS V14.01,2013-01-15 07:51:00,
2013-01-15 02:56:00,61.8,61.2,30.12,ESE,119,0.0,0.0,98,0.00,,---,0.00,VWS V14.01,2013-01-15 07:56:00,
2013-01-15 03:00:00,61.7,61.1,30.12,ESE,119,0.0,0.0,98,0.00,,---,0.00,VWS V14.01,2013-01-15 08:00:00,
2013-01-15 03:01:00,61.7,61.1,30.12,ESE,119,0.0,0.0,98,0.00,,---,0.00,VWS V14.01,2013-01-15 08:01:00,
2013-01-15 03:06:00,61.6,61.0,30.12,ESE,119,0.0,0.0,98,0.00,,---,0.00,VWS V14.01,2013-01-15 08:06:00,
2013-01-15 03:11:00,61.6,61.0,30.12,ESE,119,0.0,0.0,98,0.00,,---,0.00,VWS V14.01,2013-01-15 08:11:00,
2013-01-15 03:16:00,61.6,61.0,30.12,ESE,119,0.0,0.0,98,0.00,,---,0.00,VWS V14.01,2013-01-15 08:16:00,
2013-01-15 03:21:00,61.6,61.0,30.12,ESE,119,0.0,0.0,98,0.00,,---,0.00,VWS V14.01,2013-01-15 08:21:00,
2013-01-15 03:26:00,61.6,61.0,30.12,ESE,119,0.0,0.0,98,0.00,,---,0.00,VWS V14.01,2013-01-15 08:26:00,
2013-01-15 03:30:00,61.6,61.0,30.12,ESE,119,0.0,0.0,98,0.00,,---,0.00,VWS V14.01,2013-01-15 08:30:00,
2013-01-15 03:32:00,61.7,61.1,30.12,ESE,119,0.0,0.0,98,0.00,,---,0.00,VWS V14.01,2013-01-15 08:32:00,
2013-01-15 03:36:00,61.7,61.1,30.11,ESE,119,0.0,0.0,98,0.00,,---,0.00,VWS V14.01,2013-01-15 08:36:00,
2013-01-15 03:41:00,61.7,61.1,30.11,ESE,119,0.0,0.0,98,0.00,,---,0.00,VWS V14.01,2013-01-15 08:41:00,
2013-01-15 03:46:00,61.7,61.1,30.11,ESE,119,0.0,0.0,98,0.00,,---,0.00,VWS V14.01,2013-01-15 08:46:00,
2013-01-15 03:52:00,61.7,61.1,30.11,ESE,119,0.0,0.0,98,0.00,,---,0.00,VWS V14.01,2013-01-15 08:52:00,
2013-01-15 03:57:00,61.7,61.1,30.11,ESE,119,0.0,0.0,98,0.00,,---,0.00,VWS V14.01,2013-01-15 08:57:00,
2013-01-15 04:00:00,61.7,61.1,30.11,ESE,119,0.0,0.0,98,0.00,,---,0.00,VWS V14.01,2013-01-15 09:00:00,
2013-01-15 04:02:00,61.7,61.1,30.11,ESE,119,0.0,0.0,98,0.00,,---,0.00,VWS V14.01,2013-01-15 09:02:00,
2013-01-15 04:07:00,61.7,61.4,30.11,ESE,119,0.0,0.0,99,0.00,,---,0.00,VWS V14.01,2013-01-15 09:07:00,
2013-01-15 04:12:00,61.7,61.4,30.11,ESE,119,0.0,0.0,99,0.00,,---,0.00,VWS V14.01,2013-01-15 09:12:00,
2013-01-15 04:17:00,61.7,61.4,30.11,ESE,119,0.0,0.0,99,0.00,,---,0.00,VWS V14.01,2013-01-15 09:17:00,
2013-01-15 04:22:00,61.8,61.5,30.11,ESE,119,0.0,0.0,99,0.00,,---,0.00,VWS V14.01,2013-01-15 09:22:00,
2013-01-15 04:27:00,61.8,61.5,30.11,ESE,119,0.0,0.0,99,0.00,,---,0.00,VWS V14.01,2013-01-15 09:27:00,
2013-01-15 04:30:00,61.8,61.5,30.11,ESE,119,0.0,0.0,99,0.00,,---,0.00,VWS V14.01,2013-01-15 09:30:00,
2013-01-15 04:32:00,61.8,61.5,30.11,ESE,119,0.0,0.0,99,0.00,,---,0.00,VWS V14.01,2013-01-15 09:32:00,
2013-01-15 04:37:00,61.8,61.5,30.10,ESE,119,0.0,0.0,99,0.00,,---,0.00,VWS V14.01,2013-01-15 09:37:00,
2013-01-15 04:42:00,61.8,61.5,30.10,ESE,119,0.0,0.0,99,0.00,,---,0.00,VWS V14.01,2013-01-15 09:42:00,
2013-01-15 04:47:00,61.9,61.6,30.10,ESE,119,0.0,0.0,99,0.00,,---,0.00,VWS V14.01,2013-01-15 09:47:00,
2013-01-15 04:52:00,62.0,61.7,30.10,ESE,119,0.0,0.0,99,0.00,,---,0.00,VWS V14.01,2013-01-15 09:52:00,
2013-01-15 05:00:00,62.1,61.8,30.10,ESE,119,0.0,0.0,99,0.00,,---,0.00,VWS V14.01,2013-01-15 10:00:00,
2013-01-15 05:01:00,62.1,61.8,30.10,ESE,119,0.0,0.0,99,0.00,,---,0.00,VWS V14.01,2013-01-15 10:01:00,
2013-01-15 05:06:00,62.0,61.7,30.10,ESE,119,0.0,0.0,99,0.00,,---,0.00,VWS V14.01,2013-01-15 10:06:00,
2013-01-15 05:11:00,62.1,61.8,30.10,ESE,119,0.0,0.0,99,0.00,,---,0.00,VWS V14.01,2013-01-15 10:11:00,
2013-01-15 05:16:00,62.1,61.8,30.11,ESE,119,0.0,0.0,99,0.00,,---,0.00,VWS V14.01,2013-01-15 10:16:00,
2013-01-15 05:21:00,62.1,61.8,30.11,ESE,119,0.0,0.0,99,0.00,,---,0.00,VWS V14.01,2013-01-15 10:21:00,
2013-01-15 05:26:00,62.1,61.8,30.10,ESE,119,0.0,0.0,99,0.00,,---,0.00,VWS V14.01,2013-01-15 10:26:00,
2013-01-15 05:30:00,62.0,61.7,30.10,ESE,119,0.0,0.0,99,0.00,,---,0.00,VWS V14.01,2013-01-15 10:30:00,
2013-01-15 05:31:00,62.0,61.7,30.10,ESE,119,0.0,0.0,99,0.00,,---,0.00,VWS V14.01,2013-01-15 10:31:00,
2013-01-15 05:36:00,62.0,61.7,30.10,ESE,119,0.0,0.0,99,0.00,,---,0.00,VWS V14.01,2013-01-15 10:36:00,
2013-01-15 05:41:00,61.9,61.6,30.10,ESE,119,0.0,0.0,99,0.00,,---,0.00,VWS V14.01,2013-01-15 10:41:00,
2013-01-15 05:46:00,61.8,61.5,30.10,ESE,119,0.0,0.0,99,0.00,,---,0.00,VWS V14.01,2013-01-15 10:46:00,
2013-01-15 05:51:00,61.6,61.3,30.10,ESE,119,0.0,0.0,99,0.00,,---,0.00,VWS V14.01,2013-01-15 10:51:00,
2013-01-15 05:56:00,61.5,60.9,30.10,ESE,119,0.0,0.0,98,0.00,,---,0.00,VWS V14.01,2013-01-15 10:56:00,
2013-01-15 06:00:00,61.4,60.8,30.10,ESE,119,0.0,0.0,98,0.00,,---,0.00,VWS V14.01,2013-01-15 11:00:00,
2013-01-15 06:01:00,61.3,60.7,30.10,ESE,119,0.0,0.0,98,0.00,,---,0.00,VWS V14.01,2013-01-15 11:01:00,
2013-01-15 06:06:00,61.2,60.6,30.10,ESE,119,0.0,0.0,98,0.00,,---,0.00,VWS V14.01,2013-01-15 11:06:00,
2013-01-15 06:11:00,61.1,60.8,30.10,ESE,119,0.0,0.0,99,0.00,,---,0.00,VWS V14.01,2013-01-15 11:11:00,
2013-01-15 06:16:00,61.0,60.7,30.11,ESE,119,0.0,0.0,99,0.00,,---,0.00,VWS V14.01,2013-01-15 11:16:00,
2013-01-15 06:21:00,60.9,60.6,30.10,ESE,119,0.0,0.0,99,0.00,,---,0.00,VWS V14.01,2013-01-15 11:21:00,
2013-01-15 06:26:00,60.8,60.5,30.11,ESE,119,0.0,0.0,99,0.00,,---,0.00,VWS V14.01,2013-01-15 11:26:00,
2013-01-15 06:30:00,60.8,60.5,30.11,ESE,119,0.0,0.0,99,0.00,,---,0.00,VWS V14.01,2013-01-15 11:30:00,
2013-01-15 06:31:00,60.8,60.5,30.10,ESE,119,0.0,0.0,99,0.00,,---,0.00,VWS V14.01,2013-01-15 11:31:00,
2013-01-15 06:36:00,61.0,60.7,30.11,ESE,119,0.0,0.0,99,0.00,,---,0.00,VWS V14.01,2013-01-15 11:36:00,
2013-01-15 06:41:00,61.0,60.7,30.10,ESE,119,0.0,0.0,99,0.00,,---,0.00,VWS V14.01,2013-01-15 11:41:00,
2013-01-15 06:46:00,61.2,60.9,30.11,ESE,119,0.0,0.0,99,0.00,,---,0.00,VWS V14.01,2013-01-15 11:46:00,
2013-01-15 06:52:00,61.5,61.5,30.11,ESE,119,0.0,0.0,100,0.00,,---,0.00,VWS V14.01,2013-01-15 11:52:00,
2013-01-15 06:57:00,61.8,61.8,30.11,ESE,119,0.0,0.0,100,0.00,,---,0.00,VWS V14.01,2013-01-15 11:57:00,
2013-01-15 07:00:00,61.8,61.8,30.11,ESE,119,0.0,0.0,100,0.00,,---,0.00,VWS V14.01,2013-01-15 12:00:00,
2013-01-15 07:02:00,61.8,61.8,30.11,ESE,119,0.0,0.0,100,0.00,,---,0.00,VWS V14.01,2013-01-15 12:02:00,
2013-01-15 07:07:00,62.0,62.0,30.11,ESE,119,0.0,1.0,100,0.01,,---,0.01,VWS V14.01,2013-01-15 12:07:00,
2013-01-15 07:13:00,62.1,62.1,30.11,ESE,119,0.0,1.0,100,0.01,,---,0.01,VWS V14.01,2013-01-15 12:13:00,
2013-01-15 07:18:00,62.0,61.7,30.11,ESE,119,0.0,1.0,99,0.01,,---,0.01,VWS V14.01,2013-01-15 12:18:00,
2013-01-15 07:23:00,61.5,61.2,30.11,ESE,119,0.0,1.0,99,0.01,,---,0.01,VWS V14.01,2013-01-15 12:23:00,
2013-01-15 07:28:00,61.4,61.1,30.12,ESE,119,0.0,1.0,99,0.01,,---,0.01,VWS V14.01,2013-01-15 12:28:00,
2013-01-15 07:30:00,61.5,61.5,30.12,ESE,119,0.0,1.0,100,0.01,,---,0.01,VWS V14.01,2013-01-15 12:30:00,
2013-01-15 07:33:00,61.6,61.6,30.12,ESE,119,0.0,0.0,100,0.01,,---,0.01,VWS V14.01,2013-01-15 12:33:00,
2013-01-15 07:38:00,61.8,61.8,30.12,ESE,119,0.0,1.0,100,0.01,,---,0.01,VWS V14.01,2013-01-15 12:38:00,
2013-01-15 07:43:00,61.8,61.8,30.12,ESE,119,0.0,1.0,100,0.01,,---,0.01,VWS V14.01,2013-01-15 12:43:00,
2013-01-15 07:48:00,61.8,61.8,30.12,ESE,119,0.0,1.0,100,0.01,,---,0.01,VWS V14.01,2013-01-15 12:48:00,
2013-01-15 07:53:00,61.8,61.8,30.12,ESE,119,0.0,1.0,100,0.01,,---,0.01,VWS V14.01,2013-01-15 12:53:00,
2013-01-15 07:58:00,61.6,61.3,30.12,ESE,119,0.0,1.0,99,0.01,,---,0.01,VWS V14.01,2013-01-15 12:58:00,
2013-01-15 08:00:00,61.6,61.3,30.12,ESE,119,0.0,1.0,99,0.01,,---,0.01,VWS V14.01,2013-01-15 13:00:00,
2013-01-15 08:03:00,61.6,61.6,30.12,ESE,119,0.0,0.0,100,0.01,,---,0.01,VWS V14.01,2013-01-15 13:03:00,
2013-01-15 08:09:00,61.7,61.7,30.13,ESE,119,0.0,0.0,100,0.01,,---,0.01,VWS V14.01,2013-01-15 13:09:00,
2013-01-15 08:14:00,62.0,62.0,30.13,ESE,119,0.0,1.0,100,0.01,,---,0.01,VWS V14.01,2013-01-15 13:14:00,
2013-01-15 08:22:00,62.8,62.8,30.13,ESE,119,0.0,0.0,100,0.01,,---,0.01,VWS V14.01,2013-01-15 13:22:00,
2013-01-15 08:27:00,63.2,63.2,30.13,ESE,119,0.0,0.0,100,0.01,,---,0.01,VWS V14.01,2013-01-15 13:27:00,
2013-01-15 08:30:00,63.5,63.5,30.13,ESE,119,0.0,0.0,100,0.01,,---,0.01,VWS V14.01,2013-01-15 13:30:00,
2013-01-15 08:33:00,63.8,63.8,30.13,ESE,119,0.0,0.0,100,0.00,,---,0.01,VWS V14.01,2013-01-15 13:33:00,
2013-01-15 08:38:00,64.5,64.5,30.14,ESE,119,1.0,1.0,100,0.00,,---,0.01,VWS V14.01,2013-01-15 13:38:00,
2013-01-15 08:43:00,65.3,65.3,30.13,ESE,119,0.0,1.0,100,0.00,,---,0.01,VWS V14.01,2013-01-15 13:43:00,
2013-01-15 08:48:00,65.9,65.9,30.13,ESE,119,0.0,1.0,100,0.00,,---,0.01,VWS V14.01,2013-01-15 13:48:00,
2013-01-15 08:53:00,66.2,66.2,30.13,ESE,119,0.0,1.0,100,0.00,,---,0.01,VWS V14.01,2013-01-15 13:53:00,
2013-01-15 08:58:00,66.7,66.7,30.13,ESE,119,0.0,1.0,100,0.00,,---,0.01,VWS V14.01,2013-01-15 13:58:00,
2013-01-15 09:00:00,66.9,66.9,30.13,ESE,119,1.0,1.0,100,0.00,,---,0.01,VWS V14.01,2013-01-15 14:00:00,
2013-01-15 09:03:00,67.3,67.3,30.13,ESE,119,2.0,2.0,100,0.00,,---,0.01,VWS V14.01,2013-01-15 14:03:00,
2013-01-15 09:08:00,67.9,67.9,30.13,ESE,119,1.0,3.0,100,0.00,,---,0.01,VWS V14.01,2013-01-15 14:08:00,
2013-01-15 09:13:00,68.2,68.2,30.13,ESE,119,0.0,3.0,100,0.00,,---,0.01,VWS V14.01,2013-01-15 14:13:00,
2013-01-15 09:18:00,68.8,68.5,30.13,ESE,119,1.0,3.0,99,0.00,,---,0.01,VWS V14.01,2013-01-15 14:18:00,
2013-01-15 09:23:00,69.3,68.4,30.13,ESE,119,0.0,3.0,97,0.00,,---,0.01,VWS V14.01,2013-01-15 14:23:00,
2013-01-15 09:30:00,75.1,69.9,30.13,SSE,148,3.0,5.0,84,0.00,,---,0.01,VWS V14.01,2013-01-15 14:30:00,
2013-01-15 09:33:00,70.2,68.4,30.14,ESE,119,0.0,0.0,94,0.00,,---,0.01,VWS V14.01,2013-01-15 14:33:00,
2013-01-15 09:38:00,70.6,68.8,30.14,ESE,119,0.0,1.0,94,0.00,,---,0.01,VWS V14.01,2013-01-15 14:38:00,
2013-01-15 09:43:00,71.2,69.1,30.14,ESE,119,3.0,3.0,93,0.00,,---,0.01,VWS V14.01,2013-01-15 14:43:00,
2013-01-15 09:48:00,71.8,69.0,30.14,ESE,119,1.0,3.0,91,0.00,,---,0.01,VWS V14.01,2013-01-15 14:48:00,
2013-01-15 09:53:00,72.3,69.2,30.14,SSE,155,4.0,4.0,90,0.00,,---,0.01,VWS V14.01,2013-01-15 14:53:00,
2013-01-15 09:58:00,72.7,69.6,30.14,SE,140,2.0,4.0,90,0.00,,---,0.01,VWS V14.01,2013-01-15 14:58:00,
2013-01-15 10:00:00,72.9,69.1,30.14,SSE,158,2.0,4.0,88,0.00,,---,0.01,VWS V14.01,2013-01-15 15:00:00,
2013-01-15 10:03:00,73.0,68.9,30.14,SSE,162,0.0,4.0,87,0.00,,---,0.01,VWS V14.01,2013-01-15 15:03:00,
2013-01-15 10:08:00,73.5,69.1,30.14,SSE,153,2.0,5.0,86,0.00,,---,0.01,VWS V14.01,2013-01-15 15:08:00,
2013-01-15 10:13:00,73.8,69.0,30.13,SSE,153,0.0,5.0,85,0.00,,---,0.01,VWS V14.01,2013-01-15 15:13:00,
2013-01-15 10:18:00,74.2,69.4,30.14,SSE,153,3.0,5.0,85,0.00,,---,0.01,VWS V14.01,2013-01-15 15:18:00,
2013-01-15 10:23:00,74.4,69.6,30.13,SSE,159,2.0,5.0,85,0.00,,---,0.01,VWS V14.01,2013-01-15 15:23:00,
2013-01-15 10:28:00,74.8,70.0,30.13,South,172,2.0,5.0,85,0.00,,---,0.01,VWS V14.01,2013-01-15 15:28:00,
2013-01-15 10:30:00,75.1,69.9,30.13,SSE,148,3.0,5.0,84,0.00,,---,0.01,VWS V14.01,2013-01-15 15:30:00,
2013-01-15 10:33:00,75.2,69.0,30.13,SSE,157,1.0,5.0,81,0.00,,---,0.01,VWS V14.01,2013-01-15 15:33:00,
2013-01-15 10:41:00,75.3,69.4,30.13,SSE,158,2.0,5.0,82,0.00,,---,0.01,VWS V14.01,2013-01-15 15:41:00,
2013-01-15 10:46:00,75.6,69.7,30.13,SSE,166,1.0,5.0,82,0.00,,---,0.01,VWS V14.01,2013-01-15 15:46:00,
2013-01-15 10:51:00,76.2,69.9,30.12,SE,137,1.0,5.0,81,0.00,,---,0.01,VWS V14.01,2013-01-15 15:51:00,
2013-01-15 10:56:00,76.8,70.5,30.12,SSE,148,3.0,5.0,81,0.00,,---,0.01,VWS V14.01,2013-01-15 15:56:00,
2013-01-15 11:00:00,77.0,69.6,30.12,SSE,167,3.0,5.0,78,0.00,,---,0.01,VWS V14.01,2013-01-15 16:00:00,
2013-01-15 11:01:00,77.0,69.6,30.12,South,169,5.0,5.0,78,0.00,,---,0.01,VWS V14.01,2013-01-15 16:01:00,
2013-01-15 11:06:00,76.9,69.5,30.12,South,170,3.0,5.0,78,0.00,,---,0.01,VWS V14.01,2013-01-15 16:06:00,
2013-01-15 11:11:00,77.3,68.4,30.12,SSE,159,2.0,6.0,74,0.00,,---,0.01,VWS V14.01,2013-01-15 16:11:00,
2013-01-15 11:16:00,77.0,68.5,30.12,South,188,4.0,7.0,75,0.00,,---,0.01,VWS V14.01,2013-01-15 16:16:00,
2013-01-15 11:21:00,77.0,69.2,30.11,South,179,4.0,7.0,77,0.00,,---,0.01,VWS V14.01,2013-01-15 16:21:00,
2013-01-15 11:26:00,77.4,68.5,30.11,SE,146,3.0,7.0,74,0.00,,---,0.01,VWS V14.01,2013-01-15 16:26:00,
2013-01-15 11:30:00,77.7,69.2,30.11,ESE,120,7.0,7.0,75,0.00,,---,0.01,VWS V14.01,2013-01-15 16:30:00,
2013-01-15 11:31:00,77.7,69.2,30.11,SSE,156,3.0,7.0,75,0.00,,---,0.01,VWS V14.01,2013-01-15 16:31:00,
2013-01-15 11:36:00,77.9,68.9,30.11,ESE,111,3.0,7.0,74,0.00,,---,0.01,VWS V14.01,2013-01-15 16:36:00,
2013-01-15 11:41:00,77.9,68.6,30.11,SE,126,3.0,7.0,73,0.00,,---,0.01,VWS V14.01,2013-01-15 16:41:00,
2013-01-15 11:49:00,78.5,68.3,30.10,SSE,153,4.0,4.0,71,0.00,,---,0.01,VWS V14.01,2013-01-15 16:49:00,
2013-01-15 11:54:00,78.4,68.2,30.10,ESE,118,5.0,7.0,71,0.00,,---,0.01,VWS V14.01,2013-01-15 16:54:00,
2013-01-15 11:59:00,78.4,68.6,30.10,ESE,109,2.0,8.0,72,0.00,,---,0.01,VWS V14.01,2013-01-15 16:59:00,
2013-01-15 12:00:00,78.5,69.1,30.10,SSE,148,3.0,8.0,73,0.00,,---,0.01,VWS V14.01,2013-01-15 17:00:00,
2013-01-15 12:04:00,78.6,68.0,30.10,SE,134,3.0,6.0,70,0.00,,---,0.01,VWS V14.01,2013-01-15 17:04:00,
2013-01-15 12:09:00,78.8,68.6,30.10,ESE,119,4.0,6.0,71,0.00,,---,0.01,VWS V14.01,2013-01-15 17:09:00,
2013-01-15 12:14:00,79.2,68.2,30.09,SSE,155,4.0,6.0,69,0.00,,---,0.01,VWS V14.01,2013-01-15 17:14:00,
2013-01-15 12:19:00,79.4,67.9,30.09,South,169,2.0,7.0,68,0.00,,---,0.01,VWS V14.01,2013-01-15 17:19:00,
2013-01-15 12:25:00,79.6,67.7,30.09,SE,132,4.0,7.0,67,0.00,,---,0.01,VWS V14.01,2013-01-15 17:25:00,
2013-01-15 12:30:00,79.5,67.6,30.08,ESE,123,4.0,7.0,67,0.00,,---,0.01,VWS V14.01,2013-01-15 17:30:00,
2013-01-15 12:31:00,79.5,68.0,30.08,SE,137,3.0,7.0,68,0.00,,---,0.01,VWS V14.01,2013-01-15 17:31:00,
2013-01-15 12:36:00,79.5,68.0,30.08,SSE,163,2.0,5.0,68,0.00,,---,0.01,VWS V14.01,2013-01-15 17:36:00,
2013-01-15 12:41:00,79.5,66.3,30.08,SSE,150,5.0,6.0,64,0.00,,---,0.01,VWS V14.01,2013-01-15 17:41:00,
2013-01-15 12:46:00,79.3,65.6,30.07,SSE,163,1.0,6.0,63,0.00,,---,0.01,VWS V14.01,2013-01-15 17:46:00,
2013-01-15 12:51:00,79.2,66.4,30.07,SE,133,0.0,6.0,65,0.00,,---,0.01,VWS V14.01,2013-01-15 17:51:00,
2013-01-15 12:56:00,79.4,65.7,30.07,South,172,3.0,6.0,63,0.00,,---,0.01,VWS V14.01,2013-01-15 17:56:00,
2013-01-15 13:00:00,79.6,65.4,30.07,SSW,195,4.0,7.0,62,0.00,,---,0.01,VWS V14.01,2013-01-15 18:00:00,
2013-01-15 13:01:00,79.6,65.4,30.07,SSW,198,4.0,4.0,62,0.00,,---,0.01,VWS V14.01,2013-01-15 18:01:00,
2013-01-15 13:06:00,79.7,66.5,30.06,SSE,165,4.0,5.0,64,0.00,,---,0.01,VWS V14.01,2013-01-15 18:06:00,
2013-01-15 13:11:00,79.7,65.5,30.06,SSE,165,4.0,7.0,62,0.00,,---,0.01,VWS V14.01,2013-01-15 18:11:00,
2013-01-15 13:16:00,79.2,65.5,30.06,SW,220,1.0,7.0,63,0.00,,---,0.01,VWS V14.01,2013-01-15 18:16:00,
2013-01-15 13:21:00,78.6,65.9,30.06,SSE,164,3.0,7.0,65,0.00,,---,0.01,VWS V14.01,2013-01-15 18:21:00,
2013-01-15 13:26:00,79.1,65.9,30.06,South,173,3.0,9.0,64,0.00,,---,0.01,VWS V14.01,2013-01-15 18:26:00,
2013-01-15 13:30:00,79.5,65.3,30.05,SW,218,0.0,9.0,62,0.00,,---,0.01,VWS V14.01,2013-01-15 18:30:00,
2013-01-15 13:31:00,79.6,65.4,30.05,South,172,1.0,5.0,62,0.00,,---,0.01,VWS V14.01,2013-01-15 18:31:00,
2013-01-15 13:36:00,79.5,65.3,30.05,SSW,195,6.0,6.0,62,0.00,,---,0.01,VWS V14.01,2013-01-15 18:36:00,
2013-01-15 13:41:00,78.9,65.7,30.05,South,177,3.0,6.0,64,0.00,,---,0.01,VWS V14.01,2013-01-15 18:41:00,
2013-01-15 13:46:00,79.0,65.3,30.05,SSE,161,4.0,7.0,63,0.00,,---,0.01,VWS V14.01,2013-01-15 18:46:00,
2013-01-15 13:51:00,79.7,65.1,30.05,South,173,7.0,7.0,61,0.00,,---,0.01,VWS V14.01,2013-01-15 18:51:00,
2013-01-15 13:57:00,79.9,65.3,30.05,SSE,156,5.0,7.0,61,0.00,,---,0.01,VWS V14.01,2013-01-15 18:57:00,
2013-01-15 14:00:00,79.9,65.3,30.05,SSE,161,5.0,7.0,61,0.00,,---,0.01,VWS V14.01,2013-01-15 19:00:00,
2013-01-15 14:02:00,80.0,65.4,30.05,South,175,6.0,6.0,61,0.00,,---,0.01,VWS V14.01,2013-01-15 19:02:00,
2013-01-15 14:07:00,80.3,65.2,30.05,SSE,164,2.0,7.0,60,0.00,,---,0.01,VWS V14.01,2013-01-15 19:07:00,
2013-01-15 14:12:00,80.7,64.6,30.05,SSE,148,3.0,7.0,58,0.00,,---,0.01,VWS V14.01,2013-01-15 19:12:00,
2013-01-15 14:17:00,81.0,65.3,30.04,South,175,1.0,7.0,59,0.00,,---,0.01,VWS V14.01,2013-01-15 19:17:00,
2013-01-15 14:22:00,81.1,64.9,30.04,South,174,2.0,9.0,58,0.00,,---,0.01,VWS V14.01,2013-01-15 19:22:00,
2013-01-15 14:27:00,81.1,63.9,30.04,South,177,3.0,9.0,56,0.00,,---,0.01,VWS V14.01,2013-01-15 19:27:00,
2013-01-15 14:30:00,81.0,64.3,30.04,SE,141,5.0,9.0,57,0.00,,---,0.01,VWS V14.01,2013-01-15 19:30:00,
2013-01-15 14:32:00,80.9,65.2,30.04,SSE,165,7.0,7.0,59,0.00,,---,0.01,VWS V14.01,2013-01-15 19:32:00,
2013-01-15 14:37:00,80.6,64.0,30.04,SE,144,3.0,10.0,57,0.00,,---,0.01,VWS V14.01,2013-01-15 19:37:00,
2013-01-15 14:42:00,79.9,64.3,30.03,SSE,155,2.0,10.0,59,0.00,,---,0.01,VWS V14.01,2013-01-15 19:42:00,
2013-01-15 14:47:00,80.2,64.6,30.04,South,183,4.0,10.0,59,0.00,,---,0.01,VWS V14.01,2013-01-15 19:47:00,
2013-01-15 14:52:00,80.5,64.9,30.04,SSE,161,2.0,10.0,59,0.00,,---,0.01,VWS V14.01,2013-01-15 19:52:00,
2013-01-15 14:57:00,80.7,64.1,30.04,SSE,160,4.0,10.0,57,0.00,,---,0.01,VWS V14.01,2013-01-15 19:57:00,
2013-01-15 15:00:00,80.8,64.7,30.04,South,170,8.0,10.0,58,0.00,,---,0.01,VWS V14.01,2013-01-15 20:00:00,
2013-01-15 15:02:00,80.7,64.6,30.04,South,177,5.0,8.0,58,0.00,,---,0.01,VWS V14.01,2013-01-15 20:02:00,
2013-01-15 15:07:00,80.6,64.5,30.04,South,174,6.0,8.0,58,0.00,,---,0.01,VWS V14.01,2013-01-15 20:07:00,
2013-01-15 15:12:00,80.0,64.4,30.04,SSW,203,5.0,8.0,59,0.00,,---,0.01,VWS V14.01,2013-01-15 20:12:00,
2013-01-15 15:17:00,79.7,64.1,30.03,South,190,4.0,8.0,59,0.00,,---,0.01,VWS V14.01,2013-01-15 20:17:00,
2013-01-15 15:22:00,79.8,64.2,30.03,SW,225,6.0,8.0,59,0.00,,---,0.01,VWS V14.01,2013-01-15 20:22:00,
2013-01-15 15:28:00,80.3,64.2,30.04,South,175,3.0,8.0,58,0.00,,---,0.01,VWS V14.01,2013-01-15 20:28:00,
2013-01-15 15:30:00,80.3,64.2,30.03,SE,144,3.0,9.0,58,0.00,,---,0.01,VWS V14.01,2013-01-15 20:30:00,
2013-01-15 15:33:00,80.1,64.5,30.04,SSE,152,2.0,6.0,59,0.00,,---,0.01,VWS V14.01,2013-01-15 20:33:00,
2013-01-15 15:38:00,80.1,64.0,30.04,SE,138,5.0,7.0,58,0.00,,---,0.01,VWS V14.01,2013-01-15 20:38:00,
2013-01-15 15:43:00,80.4,63.8,30.03,SSE,153,3.0,7.0,57,0.00,,---,0.01,VWS V14.01,2013-01-15 20:43:00,
2013-01-15 15:48:00,80.6,64.5,30.04,SE,141,4.0,7.0,58,0.00,,---,0.01,VWS V14.01,2013-01-15 20:48:00,
2013-01-15 15:53:00,80.7,65.1,30.04,SSE,159,5.0,7.0,59,0.00,,---,0.01,VWS V14.01,2013-01-15 20:53:00,
2013-01-15 15:58:00,80.7,63.6,30.03,SSE,166,4.0,8.0,56,0.00,,---,0.01,VWS V14.01,2013-01-15 20:58:00,
2013-01-15 16:00:00,80.7,64.1,30.04,SSE,164,5.0,8.0,57,0.00,,---,0.01,VWS V14.01,2013-01-15 21:00:00,
2013-01-15 16:03:00,80.6,64.0,30.04,SSE,163,1.0,6.0,57,0.00,,---,0.01,VWS V14.01,2013-01-15 21:03:00,
2013-01-15 16:08:00,80.3,64.2,30.04,South,175,3.0,6.0,58,0.00,,---,0.01,VWS V14.01,2013-01-15 21:08:00,
2013-01-15 16:13:00,80.0,64.4,30.04,South,189,2.0,6.0,59,0.00,,---,0.01,VWS V14.01,2013-01-15 21:13:00,
2013-01-15 16:18:00,80.1,64.5,30.04,SSE,167,3.0,6.0,59,0.00,,---,0.01,VWS V14.01,2013-01-15 21:18:00,
2013-01-15 16:23:00,80.2,64.1,30.04,SSW,194,2.0,6.0,58,0.00,,---,0.01,VWS V14.01,2013-01-15 21:23:00,
2013-01-15 16:28:00,80.3,64.2,30.04,South,188,0.0,6.0,58,0.00,,---,0.01,VWS V14.01,2013-01-15 21:28:00,
2013-01-15 16:30:00,80.3,64.2,30.04,South,184,4.0,6.0,58,0.00,,---,0.01,VWS V14.01,2013-01-15 21:30:00,
2013-01-15 16:33:00,80.3,63.7,30.04,SW,219,1.0,5.0,57,0.00,,---,0.01,VWS V14.01,2013-01-15 21:33:00,
2013-01-15 16:38:00,80.2,63.1,30.05,South,189,0.0,6.0,56,0.00,,---,0.01,VWS V14.01,2013-01-15 21:38:00,
2013-01-15 16:43:00,80.2,63.6,30.04,SSE,149,2.0,6.0,57,0.00,,---,0.01,VWS V14.01,2013-01-15 21:43:00,
2013-01-15 16:48:00,80.0,64.4,30.04,South,178,1.0,6.0,59,0.00,,---,0.01,VWS V14.01,2013-01-15 21:48:00,
2013-01-15 16:53:00,79.6,63.5,30.04,SSE,161,3.0,6.0,58,0.00,,---,0.01,VWS V14.01,2013-01-15 21:53:00,
2013-01-15 16:58:00,79.3,64.2,30.04,SSE,156,3.0,6.0,60,0.00,,---,0.01,VWS V14.01,2013-01-15 21:58:00,
2013-01-15 17:00:00,79.2,64.1,30.04,South,173,2.0,6.0,60,0.00,,---,0.01,VWS V14.01,2013-01-15 22:00:00,
2013-01-15 17:03:00,79.0,63.9,30.04,South,176,2.0,5.0,60,0.00,,---,0.01,VWS V14.01,2013-01-15 22:03:00,
2013-01-15 17:08:00,78.7,64.1,30.05,SSE,161,3.0,6.0,61,0.00,,---,0.01,VWS V14.01,2013-01-15 22:08:00,
2013-01-15 17:13:00,78.4,64.3,30.04,South,173,1.0,6.0,62,0.00,,---,0.01,VWS V14.01,2013-01-15 22:13:00,
2013-01-15 17:30:00,78.3,65.1,30.05,SSE,158,1.0,6.0,64,0.00,,---,0.01,VWS V14.01,2013-01-15 22:30:00,
2013-01-15 18:00:00,76.5,65.6,30.05,SSE,158,0.0,1.0,69,0.00,,---,0.01,VWS V14.01,2013-01-15 23:00:00,
2013-01-15 18:30:00,73.0,64.2,30.05,SSE,158,0.0,0.0,74,0.00,,---,0.01,VWS V14.01,2013-01-15 23:30:00,
2013-01-15 19:00:00,70.0,63.9,30.05,SSE,158,0.0,2.0,81,0.00,,---,0.01,VWS V14.01,2013-01-16 00:00:00,
2013-01-15 19:30:00,70.9,65.1,30.05,ESE,112,1.0,5.0,82,0.00,,---,0.01,VWS V14.01,2013-01-16 00:30:00,
2013-01-15 20:00:00,72.2,67.1,30.05,SE,135,2.0,8.0,84,0.00,,---,0.01,VWS V14.01,2013-01-16 01:00:00,
2013-01-15 20:30:00,71.7,67.3,30.05,ESE,112,2.0,6.0,86,0.00,,---,0.01,VWS V14.01,2013-01-16 01:30:00,
2013-01-15 21:00:00,70.8,66.7,30.06,SE,135,1.0,4.0,87,0.00,,---,0.01,VWS V14.01,2013-01-16 02:00:00,
2013-01-15 21:30:00,69.3,66.2,30.06,WNW,292,0.0,3.0,90,0.00,,---,0.01,VWS V14.01,2013-01-16 02:30:00,
2013-01-15 22:00:00,68.1,66.0,30.05,WNW,292,0.0,4.0,93,0.00,,---,0.01,VWS V14.01,2013-01-16 03:00:00,
2013-01-15 22:30:00,68.7,66.3,30.05,WSW,248,0.0,3.0,92,0.00,,---,0.01,VWS V14.01,2013-01-16 03:30:00,
2013-01-15 23:00:00,67.9,65.5,30.05,WSW,248,0.0,1.0,92,0.00,,---,0.01,VWS V14.01,2013-01-16 04:00:00,
2013-01-15 23:30:00,66.3,64.5,30.05,WSW,248,0.0,1.0,94,0.00,,---,0.01,VWS V14.01,2013-01-16 04:30:00,